createdAt,value
2022-12-04T00:02:23.467Z,64.41
2022-12-04T00:04:49.151Z,64.69
2022-12-04T00:07:29.656Z,64.87
2022-12-04T00:09:57.374Z,64.73
2022-12-04T00:11:09.896Z,64.77
2022-12-04T00:12:19.730Z,64.81
2022-12-04T00:15:23.015Z,64.68
2022-12-04T00:17:14.643Z,64.74
2022-12-04T00:18:23.375Z,64.75
2022-12-04T00:20:49.173Z,64.81
2022-12-04T00:21:57.899Z,64.87
2022-12-04T00:24:22.850Z,65.10
2022-12-04T00:25:36.352Z,64.87
2022-12-04T00:27:59.657Z,64.97
2022-12-04T00:30:24.787Z,64.96
2022-12-04T00:32:49.146Z,65.09
2022-12-04T00:34:00.364Z,65.36
2022-12-04T00:36:29.172Z,65.37
2022-12-04T00:37:38.598Z,65.17
2022-12-04T00:38:49.686Z,65.11
2022-12-04T00:41:17.178Z,64.95
2022-12-04T00:43:43.580Z,64.82
2022-12-04T00:44:52.671Z,64.83
2022-12-04T00:46:02.909Z,64.93
2022-12-04T00:48:27.316Z,65.37
2022-12-04T00:50:54.784Z,65.04
2022-12-04T00:52:04.494Z,65.00
2022-12-04T00:53:14.358Z,65.16
2022-12-04T00:55:42.411Z,65.31
2022-12-04T00:56:51.623Z,65.39
2022-12-04T00:59:16.031Z,65.58
2022-12-04T01:00:27.985Z,65.61
2022-12-04T01:01:37.204Z,65.70
2022-12-04T01:02:48.166Z,65.67
2022-12-04T01:03:58.990Z,65.73
2022-12-04T01:05:07.959Z,65.78
2022-12-04T01:07:39.760Z,66.00
2022-12-04T01:08:51.927Z,65.88
2022-12-04T01:11:17.776Z,66.03
2022-12-04T01:12:27.036Z,66.07
2022-12-04T01:13:36.005Z,66.15
2022-12-04T01:16:00.648Z,66.06
2022-12-04T01:17:09.348Z,65.91
2022-12-04T01:18:18.917Z,66.04
2022-12-04T01:19:28.115Z,66.07
2022-12-04T01:20:37.784Z,66.13
2022-12-04T01:23:03.861Z,66.51
2022-12-04T01:24:13.627Z,66.58
2022-12-04T01:25:22.299Z,66.41
2022-12-04T01:27:48.258Z,66.18
2022-12-04T01:30:13.495Z,66.09
2022-12-04T01:32:38.528Z,66.17
2022-12-04T01:35:05.892Z,66.34
2022-12-04T01:37:33.938Z,66.49
2022-12-04T01:40:01.047Z,66.51
2022-12-04T01:42:28.283Z,66.47
2022-12-04T01:45:32.211Z,66.70
2022-12-04T01:48:03.439Z,66.61
2022-12-04T01:49:19.374Z,66.71
2022-12-04T01:50:29.981Z,66.80
2022-12-04T01:53:02.551Z,66.84
2022-12-04T01:55:36.145Z,66.97
2022-12-04T01:56:54.997Z,66.96
2022-12-04T01:59:27.991Z,67.00
2022-12-04T02:00:38.533Z,67.16
2022-12-04T02:03:13.888Z,67.58
2022-12-04T02:05:39.059Z,67.20
2022-12-04T02:08:05.448Z,67.29
2022-12-04T02:10:33.206Z,67.12
2022-12-04T02:16:20.855Z,67.05
2022-12-04T02:19:59.640Z,67.21
2022-12-04T02:23:20.543Z,67.02
2022-12-04T02:26:22.901Z,67.09
2022-12-04T02:30:39.376Z,67.05
2022-12-04T02:33:36.655Z,67.30
2022-12-04T02:36:26.737Z,67.47
2022-12-04T02:39:06.524Z,67.59
2022-12-04T02:40:27.379Z,67.66
2022-12-04T02:42:59.482Z,67.70
2022-12-04T02:47:06.674Z,67.96
2022-12-04T02:49:45.190Z,68.12
2022-12-04T02:52:17.922Z,67.85
2022-12-04T02:54:53.958Z,67.82
2022-12-04T02:57:30.953Z,68.17
2022-12-04T03:00:06.140Z,67.79
2022-12-04T03:04:07.702Z,67.52
2022-12-04T03:05:20.744Z,67.36
2022-12-04T03:09:44.510Z,66.82
2022-12-04T04:45:47.947Z,75.07
2022-12-04T04:47:03.658Z,74.75
2022-12-04T04:49:44.125Z,74.29
2022-12-04T04:50:54.020Z,74.16
2022-12-04T04:53:24.443Z,73.78
2022-12-04T04:54:35.854Z,73.34
2022-12-04T04:55:46.432Z,73.15
2022-12-04T04:56:57.344Z,72.48
2022-12-04T04:59:26.134Z,72.02
2022-12-04T05:01:53.637Z,71.25
2022-12-04T05:03:02.575Z,70.89
2022-12-04T05:04:12.527Z,70.59
2022-12-04T05:05:22.307Z,70.42
2022-12-04T05:06:32.541Z,70.20
2022-12-04T05:07:42.903Z,69.62
2022-12-04T05:10:08.976Z,68.77
2022-12-04T05:12:33.352Z,68.41
2022-12-04T05:14:59.799Z,68.12
2022-12-04T05:17:27.263Z,67.90
2022-12-04T05:19:56.437Z,68.13
2022-12-04T05:22:34.904Z,67.34
2022-12-04T05:25:07.689Z,67.83
2022-12-04T05:27:32.262Z,67.08
2022-12-04T05:29:59.001Z,66.81
2022-12-04T05:32:32.519Z,67.05
2022-12-04T05:34:57.921Z,66.76
2022-12-04T05:36:11.296Z,66.69
2022-12-04T05:38:38.867Z,67.08
2022-12-04T05:39:50.039Z,67.34
2022-12-04T05:42:16.744Z,67.22
2022-12-04T05:44:42.511Z,67.47
2022-12-04T05:46:03.122Z,67.33
2022-12-04T05:47:12.401Z,67.19
2022-12-04T05:49:37.538Z,67.16
2022-12-04T05:52:04.467Z,67.06
2022-12-04T05:54:28.238Z,67.10
2022-12-04T05:56:54.668Z,67.32
2022-12-04T05:58:05.117Z,67.32
2022-12-04T05:59:15.540Z,67.34
2022-12-04T06:00:44.637Z,67.48
2022-12-04T06:03:10.129Z,67.75
2022-12-04T06:04:19.493Z,67.76
2022-12-04T06:06:43.980Z,67.89
2022-12-04T06:07:53.779Z,67.93
2022-12-04T06:10:19.532Z,68.00
2022-12-04T06:12:49.303Z,68.17
2022-12-04T06:15:15.337Z,68.49
2022-12-04T06:17:42.610Z,68.57
2022-12-04T06:18:57.162Z,68.56
2022-12-04T06:20:11.790Z,68.43
2022-12-04T06:21:21.297Z,68.49
2022-12-04T06:23:44.821Z,68.89
2022-12-04T06:26:09.811Z,68.69
2022-12-04T06:28:35.275Z,68.58
2022-12-04T06:31:04.216Z,68.82
2022-12-04T06:32:17.928Z,68.99
2022-12-04T06:34:39.061Z,68.66
2022-12-04T06:37:03.189Z,68.26
2022-12-04T06:38:13.775Z,68.36
2022-12-04T06:39:23.615Z,68.22
2022-12-04T06:41:47.914Z,67.96
2022-12-04T06:44:15.355Z,67.91
2022-12-04T06:45:23.916Z,67.82
2022-12-04T06:47:50.468Z,67.82
2022-12-04T06:50:17.992Z,67.68
2022-12-04T06:51:33.281Z,67.60
2022-12-04T06:52:41.862Z,67.74
2022-12-04T06:55:07.373Z,67.64
2022-12-04T06:57:35.291Z,67.16
2022-12-04T06:58:46.463Z,67.22
2022-12-04T07:01:13.740Z,66.82
2022-12-04T07:03:40.125Z,66.83
2022-12-04T07:06:21.111Z,66.75
2022-12-04T07:07:29.770Z,66.97
2022-12-04T07:09:54.956Z,67.14
2022-12-04T07:12:23.096Z,66.82
2022-12-04T07:14:47.081Z,66.83
2022-12-04T07:17:10.920Z,66.70
2022-12-04T07:19:37.876Z,66.18
2022-12-04T07:22:01.576Z,66.33
2022-12-04T07:24:25.466Z,66.12
2022-12-04T07:26:53.905Z,66.33
2022-12-04T07:29:18.871Z,66.40
2022-12-04T07:31:43.939Z,65.41
2022-12-04T07:34:09.980Z,65.34
2022-12-04T07:36:33.612Z,65.42
2022-12-04T07:38:57.819Z,65.52
2022-12-04T07:41:23.710Z,65.25
2022-12-04T07:43:48.883Z,64.87
2022-12-04T07:44:58.830Z,64.63
2022-12-04T07:47:28.735Z,65.23
2022-12-04T07:49:52.370Z,64.93
2022-12-04T07:52:23.324Z,65.21
2022-12-04T07:54:49.539Z,64.70
2022-12-04T07:57:13.152Z,64.67
2022-12-04T07:59:37.388Z,64.72
2022-12-04T08:02:01.190Z,64.97
2022-12-04T08:04:24.965Z,64.57
2022-12-04T08:05:33.740Z,64.55
2022-12-04T08:07:58.917Z,64.27
2022-12-04T08:09:10.301Z,64.00
2022-12-04T08:10:20.180Z,63.71
2022-12-04T08:11:29.195Z,63.64
2022-12-04T08:12:38.215Z,63.79
2022-12-04T08:13:47.878Z,63.91
2022-12-04T08:14:56.434Z,63.79
2022-12-04T08:17:23.406Z,64.59
2022-12-04T08:19:48.158Z,63.83
2022-12-04T08:21:07.245Z,64.15
2022-12-04T08:23:31.016Z,64.51
2022-12-04T08:25:57.546Z,64.44
2022-12-04T08:27:06.811Z,64.22
2022-12-04T08:28:15.391Z,63.82
2022-12-04T08:30:40.299Z,63.93
2022-12-04T08:33:04.091Z,64.26
2022-12-04T08:35:29.555Z,63.86
2022-12-04T08:37:55.067Z,63.99
2022-12-04T08:40:19.218Z,63.36
2022-12-04T08:42:42.829Z,63.63
2022-12-04T08:43:58.650Z,63.64
2022-12-04T08:46:26.399Z,63.45
2022-12-04T08:48:50.454Z,63.85
2022-12-04T08:50:00.171Z,63.67
2022-12-04T08:52:31.682Z,63.31
2022-12-04T08:54:57.118Z,63.05
2022-12-04T08:57:21.634Z,62.98
2022-12-04T08:59:46.347Z,62.97
2022-12-04T09:02:12.533Z,63.36
2022-12-04T09:03:26.203Z,63.28
2022-12-04T09:05:49.191Z,62.91
2022-12-04T09:08:15.741Z,62.62
2022-12-04T09:10:40.645Z,62.47
2022-12-04T09:13:05.665Z,62.47
2022-12-04T09:15:30.687Z,62.23
2022-12-04T09:17:54.590Z,62.10
2022-12-04T09:20:19.067Z,62.89
2022-12-04T09:21:28.654Z,62.44
2022-12-04T09:23:54.434Z,62.42
2022-12-04T09:26:29.951Z,61.39
2022-12-04T09:28:58.280Z,61.93
2022-12-04T09:31:24.990Z,61.98
2022-12-04T09:32:33.615Z,61.78
2022-12-04T09:34:58.486Z,61.31
2022-12-04T09:37:22.457Z,60.77
2022-12-04T09:39:46.210Z,60.79
2022-12-04T09:42:31.711Z,60.69
2022-12-04T09:43:50.119Z,60.55
2022-12-04T09:46:39.687Z,60.52
2022-12-04T09:47:51.835Z,60.48
2022-12-04T09:50:26.757Z,60.49
2022-12-04T09:51:40.180Z,60.28
2022-12-04T09:54:41.181Z,59.56
2022-12-04T09:57:23.803Z,59.61
2022-12-04T10:01:30.992Z,59.87
2022-12-04T10:04:02.690Z,60.27
2022-12-04T10:05:17.806Z,60.18
2022-12-04T10:06:32.111Z,59.88
2022-12-04T10:09:25.277Z,58.81
2022-12-04T10:12:00.328Z,58.96
2022-12-04T10:17:20.682Z,58.72
2022-12-04T10:20:05.413Z,58.35
2022-12-04T10:22:50.221Z,58.21
2022-12-04T10:25:41.992Z,58.17
2022-12-04T10:28:34.586Z,57.74
2022-12-04T10:31:24.221Z,58.03
2022-12-04T10:32:34.837Z,57.97
2022-12-04T10:35:23.416Z,57.10
2022-12-04T10:36:34.375Z,57.14
2022-12-04T10:37:44.142Z,57.16
2022-12-04T10:39:01.520Z,57.92
2022-12-04T10:41:50.678Z,57.69
2022-12-04T10:44:22.237Z,57.14
2022-12-04T10:46:47.375Z,56.67
2022-12-04T10:47:57.616Z,57.06
2022-12-04T10:50:34.480Z,57.22
2022-12-04T10:53:00.416Z,56.87
2022-12-04T10:54:38.115Z,56.89
2022-12-04T10:57:11.197Z,56.31
2022-12-04T10:58:21.028Z,56.45
2022-12-04T11:01:02.441Z,56.04
2022-12-04T11:03:46.532Z,56.52
2022-12-04T11:06:23.349Z,56.79
2022-12-04T11:09:05.266Z,56.64
2022-12-04T11:11:52.456Z,56.24
2022-12-04T11:14:23.249Z,55.89
2022-12-04T11:17:05.561Z,56.61
2022-12-04T11:18:23.813Z,56.66
2022-12-04T11:19:36.111Z,56.43
2022-12-04T11:22:40.122Z,55.49
2022-12-04T11:23:50.723Z,55.69
2022-12-04T11:25:00.227Z,55.76
2022-12-04T11:27:31.767Z,56.35
2022-12-04T11:30:09.296Z,56.37
2022-12-04T11:31:21.794Z,56.50
2022-12-04T11:32:34.381Z,56.54
2022-12-04T11:33:50.913Z,56.71
2022-12-04T11:36:42.772Z,56.12
2022-12-04T11:39:20.205Z,56.32
2022-12-04T11:41:46.798Z,55.81
2022-12-04T11:44:56.135Z,55.58
2022-12-04T11:46:07.873Z,55.64
2022-12-04T11:48:45.379Z,55.70
2022-12-04T11:50:13.475Z,55.83
2022-12-04T11:53:07.029Z,55.63
2022-12-04T11:56:04.583Z,55.10
2022-12-04T11:59:00.724Z,55.25
2022-12-04T12:05:01.137Z,55.47
2022-12-04T12:08:17.873Z,55.44
2022-12-04T12:11:22.300Z,55.72
2022-12-04T12:14:25.725Z,55.18
2022-12-04T12:17:25.039Z,55.09
2022-12-04T12:21:47.258Z,55.09
2022-12-04T12:23:17.754Z,55.15
2022-12-04T12:26:02.914Z,54.82
2022-12-04T12:28:42.378Z,55.45
2022-12-04T12:33:06.987Z,55.12
2022-12-04T12:36:11.778Z,55.31
2022-12-04T12:38:49.779Z,55.10
2022-12-04T12:41:36.170Z,55.83
2022-12-04T12:44:39.062Z,55.53
2022-12-04T12:45:52.649Z,55.81
2022-12-04T12:48:31.748Z,55.27
2022-12-04T12:51:38.701Z,55.24
2022-12-04T12:54:41.336Z,55.17
2022-12-04T12:57:22.388Z,55.20
2022-12-04T12:58:41.476Z,55.30
2022-12-04T12:59:54.061Z,55.33
2022-12-04T13:01:08.229Z,55.73
2022-12-04T13:03:43.375Z,55.53
2022-12-04T13:06:15.179Z,55.44
2022-12-04T13:09:09.422Z,55.39
2022-12-04T13:10:37.694Z,55.67
2022-12-04T13:11:51.367Z,56.14
2022-12-04T13:14:24.290Z,56.04
2022-12-04T13:17:05.473Z,55.96
2022-12-04T13:19:38.773Z,55.70
2022-12-04T13:22:41.458Z,55.67
2022-12-04T13:24:07.712Z,55.39
2022-12-04T13:25:34.234Z,55.28
2022-12-04T13:28:21.973Z,55.31
2022-12-04T13:33:28.981Z,55.16
2022-12-04T13:36:27.819Z,55.27
2022-12-04T13:39:42.415Z,55.44
2022-12-04T13:42:25.608Z,55.20
2022-12-04T13:45:20.914Z,55.03
2022-12-04T13:46:37.340Z,54.96
2022-12-04T13:49:35.203Z,54.98
2022-12-04T13:50:46.644Z,54.96
2022-12-04T13:51:57.769Z,54.20
2022-12-04T13:54:30.527Z,54.59
2022-12-04T13:58:17.629Z,54.62
2022-12-04T14:00:54.881Z,54.26
2022-12-04T14:02:35.744Z,54.30
2022-12-04T14:03:48.916Z,54.21
2022-12-04T14:05:04.326Z,53.97
2022-12-04T14:07:57.598Z,53.94
2022-12-04T14:09:41.779Z,53.95
2022-12-04T14:12:26.358Z,53.72
2022-12-04T14:18:14.496Z,53.68
2022-12-04T14:19:31.515Z,53.65
2022-12-04T14:20:44.210Z,53.47
2022-12-04T14:23:13.511Z,53.46
2022-12-04T14:25:46.855Z,53.34
2022-12-04T14:27:15.855Z,53.32
2022-12-04T14:29:50.065Z,53.44
2022-12-04T14:31:24.939Z,53.03
2022-12-04T14:34:10.705Z,52.92
2022-12-04T14:36:45.356Z,53.50
2022-12-04T14:39:34.850Z,53.44
2022-12-04T14:42:25.025Z,53.04
2022-12-04T14:45:04.597Z,53.38
2022-12-04T14:47:45.568Z,53.00
2022-12-04T14:50:43.582Z,52.72
2022-12-04T14:53:50.856Z,52.72
2022-12-04T14:56:48.291Z,52.82
2022-12-04T14:58:21.575Z,52.56
2022-12-04T15:01:09.677Z,52.25
2022-12-04T15:03:49.136Z,52.46
2022-12-04T15:06:17.335Z,52.91
2022-12-04T15:08:58.742Z,52.50
2022-12-04T15:12:20.841Z,51.94
2022-12-04T15:14:50.194Z,52.04
2022-12-04T15:17:40.900Z,51.77
2022-12-04T15:20:19.781Z,51.87
2022-12-04T15:22:48.892Z,52.00
2022-12-04T15:25:18.295Z,51.91
2022-12-04T15:27:44.372Z,51.81
2022-12-04T15:30:22.539Z,51.51
2022-12-04T15:32:52.923Z,51.54
2022-12-04T15:35:23.897Z,52.24
2022-12-04T15:38:14.133Z,52.23
2022-12-04T15:42:25.238Z,52.58
2022-12-04T15:45:04.696Z,52.56
2022-12-04T15:47:47.252Z,52.94
2022-12-04T15:51:47.883Z,53.59
2022-12-04T15:54:26.109Z,53.39
2022-12-04T15:57:07.333Z,53.43
2022-12-04T15:59:36.060Z,53.57
2022-12-04T16:02:07.990Z,53.54
2022-12-04T16:04:45.479Z,53.35
2022-12-04T16:07:28.671Z,53.18
2022-12-04T16:08:40.452Z,52.68
2022-12-04T16:10:01.309Z,52.95
2022-12-04T16:12:46.507Z,53.18
2022-12-04T16:16:51.157Z,53.24
2022-12-04T16:19:37.471Z,53.27
2022-12-04T16:22:04.702Z,52.82
2022-12-04T16:24:29.275Z,53.08
2022-12-04T16:26:55.779Z,53.00
2022-12-04T16:29:19.203Z,53.20
2022-12-04T16:30:33.823Z,53.21
2022-12-04T16:33:18.767Z,53.21
2022-12-04T16:35:42.673Z,53.20
2022-12-04T16:38:07.523Z,53.21
2022-12-04T16:39:16.612Z,53.14
2022-12-04T16:40:26.397Z,53.04
2022-12-04T16:42:51.357Z,52.94
2022-12-04T16:44:02.005Z,52.99
2022-12-04T16:46:44.276Z,52.87
2022-12-04T16:47:53.290Z,52.90
2022-12-04T16:49:07.221Z,53.22
2022-12-04T16:50:13.383Z,53.31
2022-12-04T16:52:41.675Z,53.72
2022-12-04T16:55:16.269Z,53.28
2022-12-04T16:57:41.466Z,53.34
2022-12-04T17:00:08.217Z,53.23
2022-12-04T17:02:48.580Z,53.07
2022-12-04T17:06:34.896Z,53.19
2022-12-04T17:08:59.071Z,53.18
2022-12-04T17:11:24.635Z,53.35
2022-12-04T17:13:49.991Z,53.35
2022-12-04T17:16:17.640Z,53.15
2022-12-04T17:18:43.661Z,52.78
2022-12-04T17:21:09.731Z,52.81
2022-12-04T17:23:37.181Z,52.74
2022-12-04T17:26:07.577Z,52.80
2022-12-04T17:28:32.953Z,52.71
2022-12-04T17:30:57.851Z,53.03
2022-12-04T17:32:06.876Z,52.97
2022-12-04T17:33:16.205Z,52.98
2022-12-04T17:35:44.277Z,52.93
2022-12-04T17:38:08.663Z,52.77
2022-12-04T17:40:33.487Z,52.59
2022-12-04T17:43:05.047Z,52.77
2022-12-04T17:45:30.835Z,52.79
2022-12-04T17:46:40.411Z,52.54
2022-12-04T17:49:07.263Z,52.34
2022-12-04T17:51:30.203Z,52.08
2022-12-04T17:53:55.800Z,52.05
2022-12-04T17:55:08.811Z,52.11
2022-12-04T17:56:21.987Z,52.14
2022-12-04T17:58:47.904Z,51.75
2022-12-04T17:59:56.911Z,51.70
2022-12-04T18:01:10.210Z,51.81
2022-12-04T18:02:19.057Z,51.78
2022-12-04T18:04:42.951Z,51.73
2022-12-04T18:07:09.148Z,51.92
2022-12-04T18:22:35.582Z,51.57
2022-12-04T18:25:00.503Z,51.71
2022-12-04T18:26:10.436Z,51.59
2022-12-04T18:27:19.450Z,51.36
2022-12-04T18:29:46.859Z,51.34
2022-12-04T18:30:57.653Z,51.22
2022-12-04T18:33:22.497Z,51.37
2022-12-04T18:34:31.575Z,51.42
2022-12-04T18:35:41.596Z,51.40
2022-12-04T18:36:50.594Z,51.51
2022-12-04T18:39:20.548Z,51.74
2022-12-04T18:41:45.699Z,51.41
2022-12-04T18:44:11.985Z,51.08
2022-12-04T18:46:43.690Z,51.42
2022-12-04T18:47:54.067Z,51.47
2022-12-04T18:49:03.358Z,51.39
2022-12-04T18:51:30.906Z,51.70
2022-12-04T22:40:02.048Z,53.72
2022-12-04T22:42:32.702Z,53.56
2022-12-04T22:44:57.313Z,53.81
2022-12-04T22:47:22.607Z,53.88
2022-12-04T22:49:48.629Z,54.12
2022-12-04T22:52:16.501Z,54.14
2022-12-04T22:53:26.020Z,54.04
2022-12-04T22:55:50.417Z,54.03
2022-12-04T22:56:59.630Z,53.85
2022-12-04T22:59:25.206Z,53.97
2022-12-04T23:00:34.462Z,53.97
2022-12-04T23:01:44.518Z,54.07
2022-12-04T23:02:53.878Z,54.07
2022-12-04T23:04:03.869Z,53.99
2022-12-04T23:06:31.045Z,54.08
2022-12-04T23:07:40.153Z,54.14
2022-12-04T23:10:07.573Z,54.30
2022-12-04T23:11:19.248Z,54.12
2022-12-04T23:13:46.543Z,54.29
2022-12-04T23:16:18.388Z,54.27
2022-12-04T23:18:39.557Z,53.97
2022-12-04T23:19:49.193Z,54.12
2022-12-04T23:21:04.550Z,54.16
2022-12-04T23:22:13.507Z,54.20
2022-12-04T23:24:38.370Z,54.17
2022-12-04T23:27:01.967Z,54.33
2022-12-04T23:29:52.159Z,54.43
2022-12-04T23:30:37.889Z,54.46
2022-12-04T23:33:01.655Z,54.69
2022-12-04T23:34:10.709Z,54.64
2022-12-04T23:35:19.383Z,54.67
2022-12-04T23:37:44.595Z,54.69
2022-12-04T23:40:10.106Z,54.73
2022-12-04T23:42:42.718Z,54.71
2022-12-04T23:43:53.279Z,54.67
2022-12-04T23:45:02.302Z,54.80
2022-12-04T23:46:14.986Z,54.81
2022-12-04T23:48:44.590Z,54.77
2022-12-04T23:49:55.629Z,54.74
2022-12-04T23:51:05.508Z,54.73
2022-12-04T23:53:29.069Z,54.64
2022-12-04T23:54:38.078Z,54.65
2022-12-04T23:57:13.994Z,54.75
2022-12-04T23:58:23.147Z,54.70
